Accomac, Virginia
Current Conditions -  °F | °C
As of 11:55 PM on Friday 19 Dec 2014 (Local Time) from KMFV Reporting Station
Clear Clear  
Wind Chill: 31°   Ceiling: Unl
Heat Index: 36°   Visibility: 10mi
Dew Point: 27°   Wind: 6mph
Humidity: 70%   Direction: 330°NNW
Pressure: 30.23"   Gusts: NA
Location:  37.72°N, 75.67°W
Report Text: KMFV 200455Z AUTO 33005KT 10SM CLR 02/M03 A3023 RMK AO2
Loading
Personal Weather Stations






























Interactive Weather Map New forecast layout! Learn more

10-Day Weather Forecast

Advertisements
Track Severe Weather on mobile